Hauptseite
METAR-TAF:

METAR-TAF

Flughäfen :

Asahikawa Air Base, Japan

Breite: 43-48N, Länge: 142-22E, Höhe: 115 m

Beobachtung

Neuester Wetterbericht von vor 14 Stunden und 43 Minuten, um 05:28 UTC
Wind 15 kt aus West/Südwest, Böen bis zu 28 kt
Temperatur 23°C
Luftfeuchtigkeit 29%
Luftdruck 1011 hPa
Sichtweite 10 km oder mehr
Leicht bewölkt in der Höhe von 13000 ft
Durchbrochene Bewölkung in der Höhe von 15000 ft

METAR: RJCA 220528Z 25015G28KT 9999 FEW130 BKN150 23/04 Q1011 RMK 1AC130 5AC150 A2986

Zeit: 05:11 (20:11 UTC)


TAF: fehlend

Wetterbeobachtungen und Prognosen von mehr als 4000 Flughäfen (METAR und TAF Bericht).

Die verfügbaren Stationen werden durch gelbe und rote Markierungen auf der Karte dargestellt.

Führen Sie die Maus auf sie, um den Namen der Station zu sehen.

Darauf klicken, um die Beobachtung von Wetterbeobachtungen und Prognosen zu sehen.

Um die Karte zu ändern : klicken Sie auf den grünen Tasten mit einem schwarzen Kreuz Zum Vergrößern, auf den grünen Button mit einem Gedankenstrich zu verkleinern, oder auf die grünen Pfeile für benachbarte Karten.


METAR-TAF: